sensor_id;sensor_type;location;lat;lon;timestamp;pressure;altitude;pressure_sealevel;temperature;humidity
81686;BME280;71102;50.960;6.888;2024-03-25T00:02:09;100440.94;;;6.81;87.20
81686;BME280;71102;50.960;6.888;2024-03-25T00:04:35;100446.13;;;6.77;87.21
81686;BME280;71102;50.960;6.888;2024-03-25T00:07:01;100441.72;;;6.76;87.27
81686;BME280;71102;50.960;6.888;2024-03-25T00:09:26;100444.34;;;6.74;87.71
81686;BME280;71102;50.960;6.888;2024-03-25T00:11:52;100454.75;;;6.68;88.11
81686;BME280;71102;50.960;6.888;2024-03-25T00:14:17;100449.53;;;6.70;87.93
81686;BME280;71102;50.960;6.888;2024-03-25T00:16:42;100452.66;;;6.46;88.27
81686;BME280;71102;50.960;6.888;2024-03-25T00:19:07;100452.03;;;6.61;88.07
81686;BME280;71102;50.960;6.888;2024-03-25T00:21:33;100450.06;;;6.49;88.56
81686;BME280;71102;50.960;6.888;2024-03-25T00:23:58;100453.78;;;6.62;87.75
81686;BME280;71102;50.960;6.888;2024-03-25T00:26:24;100448.31;;;6.50;88.43
81686;BME280;71102;50.960;6.888;2024-03-25T00:28:49;100450.94;;;6.50;88.84
81686;BME280;71102;50.960;6.888;2024-03-25T00:31:14;100446.31;;;6.34;88.83
81686;BME280;71102;50.960;6.888;2024-03-25T00:33:40;100447.88;;;6.26;89.56
81686;BME280;71102;50.960;6.888;2024-03-25T00:36:05;100448.06;;;6.35;89.24
81686;BME280;71102;50.960;6.888;2024-03-25T00:38:31;100449.00;;;6.40;88.92
81686;BME280;71102;50.960;6.888;2024-03-25T00:40:56;100448.19;;;6.44;89.01
81686;BME280;71102;50.960;6.888;2024-03-25T00:43:21;100446.38;;;6.40;89.08
81686;BME280;71102;50.960;6.888;2024-03-25T00:45:47;100448.19;;;6.44;89.30
81686;BME280;71102;50.960;6.888;2024-03-25T00:48:12;100438.28;;;6.28;90.46
81686;BME280;71102;50.960;6.888;2024-03-25T00:50:37;100440.03;;;6.27;90.47
81686;BME280;71102;50.960;6.888;2024-03-25T00:53:03;100438.66;;;6.49;89.54
81686;BME280;71102;50.960;6.888;2024-03-25T00:55:28;100439.53;;;6.48;89.68
81686;BME280;71102;50.960;6.888;2024-03-25T00:57:54;100440.00;;;6.26;91.07
81686;BME280;71102;50.960;6.888;2024-03-25T01:00:19;100439.41;;;6.42;90.77
81686;BME280;71102;50.960;6.888;2024-03-25T01:02:45;100437.66;;;6.41;90.20
81686;BME280;71102;50.960;6.888;2024-03-25T01:05:10;100443.47;;;6.23;90.79
81686;BME280;71102;50.960;6.888;2024-03-25T01:07:35;100433.16;;;6.37;90.38
81686;BME280;71102;50.960;6.888;2024-03-25T01:10:01;100434.16;;;6.42;90.46
81686;BME280;71102;50.960;6.888;2024-03-25T01:12:26;100437.66;;;6.44;90.39
81686;BME280;71102;50.960;6.888;2024-03-25T01:14:52;100430.59;;;6.40;89.85
81686;BME280;71102;50.960;6.888;2024-03-25T01:17:18;100430.78;;;6.50;90.13
81686;BME280;71102;50.960;6.888;2024-03-25T01:19:44;100448.41;;;6.56;89.36
81686;BME280;71102;50.960;6.888;2024-03-25T01:22:09;100442.22;;;6.54;89.38
81686;BME280;71102;50.960;6.888;2024-03-25T01:24:35;100449.22;;;6.50;89.60
81686;BME280;71102;50.960;6.888;2024-03-25T01:27:00;100444.88;;;6.54;89.37
81686;BME280;71102;50.960;6.888;2024-03-25T01:29:26;100441.50;;;6.62;89.52
81686;BME280;71102;50.960;6.888;2024-03-25T01:31:51;100440.59;;;6.60;89.27
81686;BME280;71102;50.960;6.888;2024-03-25T01:34:17;100450.19;;;6.57;89.14
81686;BME280;71102;50.960;6.888;2024-03-25T01:36:42;100452.03;;;6.61;88.62
81686;BME280;71102;50.960;6.888;2024-03-25T01:39:08;100439.66;;;6.57;89.45
81686;BME280;71102;50.960;6.888;2024-03-25T01:41:33;100439.75;;;6.63;88.56
81686;BME280;71102;50.960;6.888;2024-03-25T01:43:58;100443.13;;;6.54;89.12
81686;BME280;71102;50.960;6.888;2024-03-25T01:46:24;100446.66;;;6.55;89.45
81686;BME280;71102;50.960;6.888;2024-03-25T01:48:49;100441.31;;;6.50;89.41
81686;BME280;71102;50.960;6.888;2024-03-25T01:51:17;100440.56;;;6.59;88.93
81686;BME280;71102;50.960;6.888;2024-03-25T01:53:44;100436.94;;;6.51;88.89
81686;BME280;71102;50.960;6.888;2024-03-25T01:56:10;100439.47;;;6.45;88.84
81686;BME280;71102;50.960;6.888;2024-03-25T01:58:38;100441.13;;;6.40;89.32
81686;BME280;71102;50.960;6.888;2024-03-25T02:01:04;100449.13;;;6.46;89.26
81686;BME280;71102;50.960;6.888;2024-03-25T02:03:29;100436.91;;;6.49;89.17
81686;BME280;71102;50.960;6.888;2024-03-25T02:05:58;100444.75;;;6.46;89.21
81686;BME280;71102;50.960;6.888;2024-03-25T02:08:26;100442.69;;;6.29;89.48
81686;BME280;71102;50.960;6.888;2024-03-25T02:10:53;100451.50;;;6.31;89.38
81686;BME280;71102;50.960;6.888;2024-03-25T02:13:19;100448.13;;;6.38;89.30
81686;BME280;71102;50.960;6.888;2024-03-25T02:15:45;100448.19;;;6.41;89.09
81686;BME280;71102;50.960;6.888;2024-03-25T02:18:10;100449.94;;;6.42;89.19
81686;BME280;71102;50.960;6.888;2024-03-25T02:20:35;100456.94;;;6.41;89.46
81686;BME280;71102;50.960;6.888;2024-03-25T02:23:01;100451.50;;;6.31;89.84
81686;BME280;71102;50.960;6.888;2024-03-25T02:25:27;100446.38;;;6.40;88.92
81686;BME280;71102;50.960;6.888;2024-03-25T02:27:53;100456.84;;;6.37;89.18
81686;BME280;71102;50.960;6.888;2024-03-25T02:30:18;100462.09;;;6.34;89.11
81686;BME280;71102;50.960;6.888;2024-03-25T02:32:44;100454.88;;;6.24;89.87
81686;BME280;71102;50.960;6.888;2024-03-25T02:35:12;100448.94;;;6.34;89.62
81686;BME280;71102;50.960;6.888;2024-03-25T02:37:39;100448.69;;;6.22;89.76
81686;BME280;71102;50.960;6.888;2024-03-25T02:40:07;100450.50;;;6.26;89.10
81686;BME280;71102;50.960;6.888;2024-03-25T02:42:33;100444.47;;;6.31;89.65
81686;BME280;71102;50.960;6.888;2024-03-25T02:44:58;100448.75;;;6.25;89.40
81686;BME280;71102;50.960;6.888;2024-03-25T02:47:25;100447.75;;;6.20;89.96
81686;BME280;71102;50.960;6.888;2024-03-25T02:49:50;100446.25;;;6.31;89.88
81686;BME280;71102;50.960;6.888;2024-03-25T02:52:16;100447.88;;;6.26;89.79
81686;BME280;71102;50.960;6.888;2024-03-25T02:54:41;100443.50;;;6.25;88.83
81686;BME280;71102;50.960;6.888;2024-03-25T02:57:06;100445.16;;;6.21;89.21
81686;BME280;71102;50.960;6.888;2024-03-25T02:59:32;100439.88;;;6.20;89.41
81686;BME280;71102;50.960;6.888;2024-03-25T03:01:57;100442.47;;;6.17;89.97
81686;BME280;71102;50.960;6.888;2024-03-25T03:04:22;100438.97;;;6.18;89.56
81686;BME280;71102;50.960;6.888;2024-03-25T03:06:48;100439.03;;;6.21;89.35
81686;BME280;71102;50.960;6.888;2024-03-25T03:09:13;100435.41;;;6.14;89.51
81686;BME280;71102;50.960;6.888;2024-03-25T03:11:38;100431.16;;;6.21;89.36
81686;BME280;71102;50.960;6.888;2024-03-25T03:14:04;100431.13;;;6.19;89.19
81686;BME280;71102;50.960;6.888;2024-03-25T03:16:29;100431.00;;;6.13;89.26
81686;BME280;71102;50.960;6.888;2024-03-25T03:18:55;100431.97;;;6.17;89.17
81686;BME280;71102;50.960;6.888;2024-03-25T03:21:20;100430.22;;;6.19;89.14
81686;BME280;71102;50.960;6.888;2024-03-25T03:23:46;100431.91;;;6.14;89.18
81686;BME280;71102;50.960;6.888;2024-03-25T03:26:11;100422.09;;;6.05;89.53
81686;BME280;71102;50.960;6.888;2024-03-25T03:28:36;100422.19;;;6.11;89.45
81686;BME280;71102;50.960;6.888;2024-03-25T03:31:01;100429.31;;;6.15;88.72
81686;BME280;71102;50.960;6.888;2024-03-25T03:33:27;100426.59;;;6.11;89.63
81686;BME280;71102;50.960;6.888;2024-03-25T03:35:52;100423.88;;;6.08;89.75
81686;BME280;71102;50.960;6.888;2024-03-25T03:38:17;100424.63;;;6.01;90.09
81686;BME280;71102;50.960;6.888;2024-03-25T03:40:55;100422.91;;;6.03;89.79
81686;BME280;71102;50.960;6.888;2024-03-25T03:43:20;100429.84;;;5.98;89.96
81686;BME280;71102;50.960;6.888;2024-03-25T03:45:45;100429.91;;;6.01;89.73
81686;BME280;71102;50.960;6.888;2024-03-25T03:48:11;100429.78;;;5.95;89.90
81686;BME280;71102;50.960;6.888;2024-03-25T03:50:36;100430.72;;;5.97;89.75
81686;BME280;71102;50.960;6.888;2024-03-25T03:53:01;100430.72;;;5.97;89.62
81686;BME280;71102;50.960;6.888;2024-03-25T03:55:27;100424.56;;;5.96;89.81
81686;BME280;71102;50.960;6.888;2024-03-25T03:57:52;100426.06;;;5.84;89.61
81686;BME280;71102;50.960;6.888;2024-03-25T04:00:17;100433.22;;;5.91;89.41
81686;BME280;71102;50.960;6.888;2024-03-25T04:02:43;100430.50;;;5.86;89.04
81686;BME280;71102;50.960;6.888;2024-03-25T04:05:08;100434.97;;;5.92;89.12
81686;BME280;71102;50.960;6.888;2024-03-25T04:07:33;100439.06;;;5.79;89.26
81686;BME280;71102;50.960;6.888;2024-03-25T04:09:59;100432.97;;;5.80;89.36
81686;BME280;71102;50.960;6.888;2024-03-25T04:12:24;100439.91;;;5.77;89.71
81686;BME280;71102;50.960;6.888;2024-03-25T04:14:49;100445.09;;;5.74;90.08
81686;BME280;71102;50.960;6.888;2024-03-25T04:17:14;100438.88;;;5.70;89.96
81686;BME280;71102;50.960;6.888;2024-03-25T04:19:40;100429.91;;;5.59;90.22
81686;BME280;71102;50.960;6.888;2024-03-25T04:22:05;100430.97;;;5.69;89.45
81686;BME280;71102;50.960;6.888;2024-03-25T04:24:30;100428.31;;;5.67;89.53
81686;BME280;71102;50.960;6.888;2024-03-25T04:26:56;100427.13;;;5.52;89.43
81686;BME280;71102;50.960;6.888;2024-03-25T04:29:21;100425.41;;;5.54;90.29
81686;BME280;71102;50.960;6.888;2024-03-25T04:31:46;100424.59;;;5.56;89.61
81686;BME280;71102;50.960;6.888;2024-03-25T04:34:12;100427.16;;;5.53;90.18
81686;BME280;71102;50.960;6.888;2024-03-25T04:36:37;100428.91;;;5.53;89.58
81686;BME280;71102;50.960;6.888;2024-03-25T04:39:02;100430.59;;;5.51;89.71
81686;BME280;71102;50.960;6.888;2024-03-25T04:41:28;100437.53;;;5.46;90.04
81686;BME280;71102;50.960;6.888;2024-03-25T04:43:53;100437.47;;;5.43;89.83
81686;BME280;71102;50.960;6.888;2024-03-25T04:46:18;100436.50;;;5.39;90.13
81686;BME280;71102;50.960;6.888;2024-03-25T04:48:44;100433.75;;;5.34;90.12
81686;BME280;71102;50.960;6.888;2024-03-25T04:51:09;100439.00;;;5.34;89.67
81686;BME280;71102;50.960;6.888;2024-03-25T04:53:34;100431.91;;;5.29;90.33
81686;BME280;71102;50.960;6.888;2024-03-25T04:56:00;100433.66;;;5.28;89.91
81686;BME280;71102;50.960;6.888;2024-03-25T04:58:25;100435.22;;;5.20;90.15
81686;BME280;71102;50.960;6.888;2024-03-25T05:00:50;100442.28;;;5.24;90.40
81686;BME280;71102;50.960;6.888;2024-03-25T05:03:16;100437.72;;;5.16;90.47
81686;BME280;71102;50.960;6.888;2024-03-25T05:05:41;100438.47;;;5.10;90.87
81686;BME280;71102;50.960;6.888;2024-03-25T05:08:06;100434.19;;;5.14;90.40
81686;BME280;71102;50.960;6.888;2024-03-25T05:10:32;100429.78;;;5.11;90.67
81686;BME280;71102;50.960;6.888;2024-03-25T05:12:57;100437.69;;;5.14;90.17
81686;BME280;71102;50.960;6.888;2024-03-25T05:15:22;100443.88;;;5.16;90.31
81686;BME280;71102;50.960;6.888;2024-03-25T05:17:48;100442.16;;;5.17;90.14
81686;BME280;71102;50.960;6.888;2024-03-25T05:20:13;100451.66;;;5.12;90.02
81686;BME280;71102;50.960;6.888;2024-03-25T05:22:39;100447.16;;;5.06;90.59
81686;BME280;71102;50.960;6.888;2024-03-25T05:25:04;100459.34;;;5.04;90.34
81686;BME280;71102;50.960;6.888;2024-03-25T05:27:30;100447.81;;;4.98;90.92
81686;BME280;71102;50.960;6.888;2024-03-25T05:29:55;100455.81;;;5.02;90.80
81686;BME280;71102;50.960;6.888;2024-03-25T05:32:20;100453.22;;;5.04;90.70
81686;BME280;71102;50.960;6.888;2024-03-25T05:34:46;100447.81;;;4.98;90.52
81686;BME280;71102;50.960;6.888;2024-03-25T05:37:11;100449.50;;;4.96;91.16
81686;BME280;71102;50.960;6.888;2024-03-25T05:39:36;100438.94;;;4.91;90.04
81686;BME280;71102;50.960;6.888;2024-03-25T05:42:02;100442.28;;;4.84;89.47
81686;BME280;71102;50.960;6.888;2024-03-25T05:44:27;100443.69;;;4.72;89.12
81686;BME280;71102;50.960;6.888;2024-03-25T05:46:52;100444.31;;;4.60;89.43
81686;BME280;71102;50.960;6.888;2024-03-25T05:49:18;100442.53;;;4.59;89.63
81686;BME280;71102;50.960;6.888;2024-03-25T05:51:43;100441.50;;;4.53;89.44
81686;BME280;71102;50.960;6.888;2024-03-25T05:54:08;100452.78;;;4.49;89.63
81686;BME280;71102;50.960;6.888;2024-03-25T05:56:34;100445.69;;;4.46;89.94
81686;BME280;71102;50.960;6.888;2024-03-25T05:58:59;100454.16;;;4.36;89.66
81686;BME280;71102;50.960;6.888;2024-03-25T06:01:25;100453.50;;;4.45;90.71
81686;BME280;71102;50.960;6.888;2024-03-25T06:03:51;100456.97;;;4.42;91.13
81686;BME280;71102;50.960;6.888;2024-03-25T06:06:17;100461.44;;;4.46;91.69
81686;BME280;71102;50.960;6.888;2024-03-25T06:08:42;100455.16;;;4.40;91.63
81686;BME280;71102;50.960;6.888;2024-03-25T06:11:08;100459.94;;;4.56;92.26
81686;BME280;71102;50.960;6.888;2024-03-25T06:13:33;100454.63;;;4.53;92.50
81686;BME280;71102;50.960;6.888;2024-03-25T06:15:59;100454.06;;;4.66;92.15
81686;BME280;71102;50.960;6.888;2024-03-25T06:18:24;100457.34;;;4.57;90.89
81686;BME280;71102;50.960;6.888;2024-03-25T06:20:50;100456.75;;;4.67;92.35
81686;BME280;71102;50.960;6.888;2024-03-25T06:23:24;100451.69;;;4.76;91.93
81686;BME280;71102;50.960;6.888;2024-03-25T06:25:51;100453.69;;;4.86;92.15
81686;BME280;71102;50.960;6.888;2024-03-25T06:28:17;100453.88;;;4.94;91.49
81686;BME280;71102;50.960;6.888;2024-03-25T06:30:42;100454.72;;;4.93;91.46
81686;BME280;71102;50.960;6.888;2024-03-25T06:33:08;100449.50;;;4.96;91.88
81686;BME280;71102;50.960;6.888;2024-03-25T06:35:33;100449.75;;;5.05;91.33
81686;BME280;71102;50.960;6.888;2024-03-25T06:37:58;100452.47;;;5.09;91.03
81686;BME280;71102;50.960;6.888;2024-03-25T06:40:24;100457.91;;;5.17;90.53
81686;BME280;71102;50.960;6.888;2024-03-25T06:42:49;100446.75;;;5.27;90.74
81686;BME280;71102;50.960;6.888;2024-03-25T06:45:15;100454.78;;;5.34;90.49
81686;BME280;71102;50.960;6.888;2024-03-25T06:47:40;100458.31;;;5.35;90.72
81686;BME280;71102;50.960;6.888;2024-03-25T06:50:06;100468.91;;;5.39;90.22
81686;BME280;71102;50.960;6.888;2024-03-25T06:52:31;100465.59;;;5.48;89.59
81686;BME280;71102;50.960;6.888;2024-03-25T06:54:56;100472.66;;;5.51;89.77
81686;BME280;71102;50.960;6.888;2024-03-25T06:57:23;100474.56;;;5.58;89.55
81686;BME280;71102;50.960;6.888;2024-03-25T06:59:48;100470.31;;;5.66;89.36
81686;BME280;71102;50.960;6.888;2024-03-25T07:02:13;100471.38;;;5.74;89.32
81686;BME280;71102;50.960;6.888;2024-03-25T07:04:39;100474.25;;;5.84;88.68
81686;BME280;71102;50.960;6.888;2024-03-25T07:07:04;100464.47;;;5.79;89.13
81686;BME280;71102;50.960;6.888;2024-03-25T07:09:29;100467.25;;;5.85;88.90
81686;BME280;71102;50.960;6.888;2024-03-25T07:11:55;100469.06;;;5.87;88.54
81686;BME280;71102;50.960;6.888;2024-03-25T07:14:20;100472.03;;;6.04;88.32
81686;BME280;71102;50.960;6.888;2024-03-25T07:16:46;100466.88;;;6.10;88.20
81686;BME280;71102;50.960;6.888;2024-03-25T07:19:11;100461.72;;;6.16;87.88
81686;BME280;71102;50.960;6.888;2024-03-25T07:21:36;100462.78;;;6.24;86.91
81686;BME280;71102;50.960;6.888;2024-03-25T07:24:02;100468.06;;;6.27;86.51
81686;BME280;71102;50.960;6.888;2024-03-25T07:26:28;100464.50;;;6.23;85.71
81686;BME280;71102;50.960;6.888;2024-03-25T07:28:54;100457.44;;;6.21;86.28
81686;BME280;71102;50.960;6.888;2024-03-25T07:31:19;100462.09;;;6.34;86.32
81686;BME280;71102;50.960;6.888;2024-03-25T07:33:44;100460.44;;;6.40;86.89
81686;BME280;71102;50.960;6.888;2024-03-25T07:36:10;100458.00;;;6.52;87.23
81686;BME280;71102;50.960;6.888;2024-03-25T07:38:35;100459.94;;;6.64;85.68
81686;BME280;71102;50.960;6.888;2024-03-25T07:41:04;100459.06;;;6.62;85.43
81686;BME280;71102;50.960;6.888;2024-03-25T07:43:29;100463.66;;;6.73;83.52
81686;BME280;71102;50.960;6.888;2024-03-25T07:45:55;100457.53;;;6.76;83.49
81686;BME280;71102;50.960;6.888;2024-03-25T07:48:20;100469.06;;;6.84;83.53
81686;BME280;71102;50.960;6.888;2024-03-25T07:50:45;100470.09;;;6.92;83.69
81686;BME280;71102;50.960;6.888;2024-03-25T07:53:11;100471.16;;;7.04;84.27
81686;BME280;71102;50.960;6.888;2024-03-25T07:55:36;100466.00;;;7.12;83.67
81686;BME280;71102;50.960;6.888;2024-03-25T07:58:01;100464.22;;;7.11;81.22
81686;BME280;71102;50.960;6.888;2024-03-25T08:00:27;100462.63;;;7.20;83.33
81686;BME280;71102;50.960;6.888;2024-03-25T08:02:52;100466.38;;;7.36;82.24
81686;BME280;71102;50.960;6.888;2024-03-25T08:05:17;100460.09;;;7.29;80.79
81686;BME280;71102;50.960;6.888;2024-03-25T08:07:43;100461.16;;;7.42;81.24
81686;BME280;71102;50.960;6.888;2024-03-25T08:10:08;100464.78;;;7.48;80.68
81686;BME280;71102;50.960;6.888;2024-03-25T08:12:34;100460.44;;;7.55;79.31
81686;BME280;71102;50.960;6.888;2024-03-25T08:14:59;100457.78;;;7.53;79.65
81686;BME280;71102;50.960;6.888;2024-03-25T08:17:24;100461.56;;;7.72;80.04
81686;BME280;71102;50.960;6.888;2024-03-25T08:19:50;100459.00;;;7.78;79.13
81686;BME280;71102;50.960;6.888;2024-03-25T08:22:15;100453.75;;;7.81;78.22
81686;BME280;71102;50.960;6.888;2024-03-25T08:24:40;100445.81;;;7.79;78.53
81686;BME280;71102;50.960;6.888;2024-03-25T08:27:06;100446.94;;;7.99;78.33
81686;BME280;71102;50.960;6.888;2024-03-25T08:29:31;100447.88;;;8.04;76.78
81686;BME280;71102;50.960;6.888;2024-03-25T08:31:56;100452.31;;;8.10;76.50
81686;BME280;71102;50.960;6.888;2024-03-25T08:34:22;100443.63;;;8.17;75.98
81686;BME280;71102;50.960;6.888;2024-03-25T08:36:47;100444.56;;;8.22;75.65
81686;BME280;71102;50.960;6.888;2024-03-25T08:39:12;100449.69;;;8.10;75.49
81686;BME280;71102;50.960;6.888;2024-03-25T08:41:38;100442.72;;;8.15;75.10
81686;BME280;71102;50.960;6.888;2024-03-25T08:44:03;100444.66;;;8.28;73.53
81686;BME280;71102;50.960;6.888;2024-03-25T08:46:28;100442.97;;;8.39;74.49
81686;BME280;71102;50.960;6.888;2024-03-25T08:48:54;100454.34;;;8.32;72.02
81686;BME280;71102;50.960;6.888;2024-03-25T08:51:19;100443.94;;;8.47;75.04
81686;BME280;71102;50.960;6.888;2024-03-25T08:53:44;100443.09;;;8.54;74.85
81686;BME280;71102;50.960;6.888;2024-03-25T08:56:10;100450.31;;;8.70;74.02
81686;BME280;71102;50.960;6.888;2024-03-25T08:58:35;100440.69;;;8.77;73.64
81686;BME280;71102;50.960;6.888;2024-03-25T09:01:00;100444.16;;;8.74;70.56
81686;BME280;71102;50.960;6.888;2024-03-25T09:03:25;100439.88;;;8.88;71.60
81686;BME280;71102;50.960;6.888;2024-03-25T09:05:53;100440.88;;;9.01;71.32
81686;BME280;71102;50.960;6.888;2024-03-25T09:08:18;100432.13;;;9.17;71.12
81686;BME280;71102;50.960;6.888;2024-03-25T09:10:43;100433.06;;;9.19;70.06
81686;BME280;71102;50.960;6.888;2024-03-25T09:13:09;100437.50;;;9.24;69.92
81686;BME280;71102;50.960;6.888;2024-03-25T09:15:34;100442.78;;;9.27;69.72
81686;BME280;71102;50.960;6.888;2024-03-25T09:18:00;100432.16;;;9.18;68.82
81686;BME280;71102;50.960;6.888;2024-03-25T09:20:25;100434.91;;;9.33;70.44
81686;BME280;71102;50.960;6.888;2024-03-25T09:22:51;100431.38;;;9.36;68.54
81686;BME280;71102;50.960;6.888;2024-03-25T09:25:16;100421.72;;;9.45;69.73
81686;BME280;71102;50.960;6.888;2024-03-25T09:27:46;100419.13;;;9.54;67.78
81686;BME280;71102;50.960;6.888;2024-03-25T09:30:12;100413.91;;;9.65;67.73
81686;BME280;71102;50.960;6.888;2024-03-25T09:32:37;100420.09;;;9.74;68.41
81686;BME280;71102;50.960;6.888;2024-03-25T09:35:03;100415.69;;;9.75;65.30
81686;BME280;71102;50.960;6.888;2024-03-25T09:37:29;100414.88;;;9.95;65.53
81686;BME280;71102;50.960;6.888;2024-03-25T09:39:54;100413.09;;;9.90;64.75
81686;BME280;71102;50.960;6.888;2024-03-25T09:42:26;100416.63;;;9.93;64.83
81686;BME280;71102;50.960;6.888;2024-03-25T09:44:53;100406.94;;;9.97;64.45
81686;BME280;71102;50.960;6.888;2024-03-25T09:47:19;100411.34;;;9.96;64.95
81686;BME280;71102;50.960;6.888;2024-03-25T09:49:45;100416.63;;;9.93;64.67
81686;BME280;71102;50.960;6.888;2024-03-25T09:52:11;100411.34;;;9.93;64.35
81686;BME280;71102;50.960;6.888;2024-03-25T09:54:37;100399.00;;;9.98;64.36
81686;BME280;71102;50.960;6.888;2024-03-25T09:57:03;100404.38;;;10.07;64.60
81686;BME280;71102;50.960;6.888;2024-03-25T09:59:28;100399.88;;;9.94;64.44
81686;BME280;71102;50.960;6.888;2024-03-25T10:01:54;100395.53;;;10.19;65.41
81686;BME280;71102;50.960;6.888;2024-03-25T10:04:20;100389.38;;;10.36;65.29
81686;BME280;71102;50.960;6.888;2024-03-25T10:06:45;100388.53;;;10.59;66.10
81686;BME280;71102;50.960;6.888;2024-03-25T10:09:10;100376.16;;;10.74;66.16
81686;BME280;71102;50.960;6.888;2024-03-25T10:11:36;100377.91;;;10.80;63.27
81686;BME280;71102;50.960;6.888;2024-03-25T10:14:01;100367.28;;;10.93;62.53
81686;BME280;71102;50.960;6.888;2024-03-25T10:16:27;100368.13;;;11.06;63.26
81686;BME280;71102;50.960;6.888;2024-03-25T10:18:53;100363.69;;;11.18;64.15
81686;BME280;71102;50.960;6.888;2024-03-25T10:21:20;100365.38;;;11.36;62.70
81686;BME280;71102;50.960;6.888;2024-03-25T10:23:45;100356.50;;;11.46;59.97
81686;BME280;71102;50.960;6.888;2024-03-25T10:26:29;100355.59;;;11.51;61.20
81686;BME280;71102;50.960;6.888;2024-03-25T10:29:07;100346.81;;;11.36;56.95
81686;BME280;71102;50.960;6.888;2024-03-25T10:31:33;100344.13;;;11.48;59.54
81686;BME280;71102;50.960;6.888;2024-03-25T10:33:58;100335.25;;;11.55;57.36
81686;BME280;71102;50.960;6.888;2024-03-25T10:36:24;100333.44;;;11.60;58.60
81686;BME280;71102;50.960;6.888;2024-03-25T10:38:56;100329.03;;;11.65;56.85
81686;BME280;71102;50.960;6.888;2024-03-25T10:41:22;100321.94;;;11.61;52.09
81686;BME280;71102;50.960;6.888;2024-03-25T10:43:48;100320.22;;;11.54;53.19
81686;BME280;71102;50.960;6.888;2024-03-25T10:46:24;100319.47;;;11.16;52.39
81686;BME280;71102;50.960;6.888;2024-03-25T10:49:11;100325.69;;;11.15;51.95
81686;BME280;71102;50.960;6.888;2024-03-25T10:51:38;100313.31;;;11.12;52.49
81686;BME280;71102;50.960;6.888;2024-03-25T10:54:04;100310.66;;;11.17;53.50
81686;BME280;71102;50.960;6.888;2024-03-25T10:56:29;100306.16;;;11.37;53.26
81686;BME280;71102;50.960;6.888;2024-03-25T10:58:55;100299.88;;;11.50;53.41
81686;BME280;71102;50.960;6.888;2024-03-25T11:01:22;100298.94;;;11.57;51.01
81686;BME280;71102;50.960;6.888;2024-03-25T11:03:48;100293.59;;;11.73;51.94
81686;BME280;71102;50.960;6.888;2024-03-25T11:06:15;100288.16;;;11.93;55.95
81686;BME280;71102;50.960;6.888;2024-03-25T11:08:40;100283.59;;;12.10;53.67
81686;BME280;71102;50.960;6.888;2024-03-25T11:11:06;100284.38;;;12.22;51.30
81686;BME280;71102;50.960;6.888;2024-03-25T11:13:31;100280.78;;;12.26;48.51
81686;BME280;71102;50.960;6.888;2024-03-25T11:15:57;100278.22;;;12.19;47.09
81686;BME280;71102;50.960;6.888;2024-03-25T11:18:24;100278.19;;;12.22;46.08
81686;BME280;71102;50.960;6.888;2024-03-25T11:21:05;100279.00;;;12.30;45.14
81686;BME280;71102;50.960;6.888;2024-03-25T11:23:40;100281.53;;;12.43;44.53
81686;BME280;71102;50.960;6.888;2024-03-25T11:26:17;100271.72;;;12.53;45.24
81686;BME280;71102;50.960;6.888;2024-03-25T11:28:44;100271.66;;;12.57;45.35
81686;BME280;71102;50.960;6.888;2024-03-25T11:31:09;100263.94;;;12.32;44.04
81686;BME280;71102;50.960;6.888;2024-03-25T11:33:39;100264.03;;;12.20;43.05
81686;BME280;71102;50.960;6.888;2024-03-25T11:36:05;100252.47;;;12.27;45.33
81686;BME280;71102;50.960;6.888;2024-03-25T11:38:31;100251.53;;;12.32;45.09
81686;BME280;71102;50.960;6.888;2024-03-25T11:40:56;100247.94;;;12.35;45.32
81686;BME280;71102;50.960;6.888;2024-03-25T11:43:22;100242.69;;;12.32;45.62
81686;BME280;71102;50.960;6.888;2024-03-25T11:45:48;100240.78;;;12.46;47.06
81686;BME280;71102;50.960;6.888;2024-03-25T11:48:15;100240.53;;;12.67;45.36
81686;BME280;71102;50.960;6.888;2024-03-25T11:50:40;100229.72;;;12.82;44.75
81686;BME280;71102;50.960;6.888;2024-03-25T11:53:05;100231.38;;;12.93;42.30
81686;BME280;71102;50.960;6.888;2024-03-25T11:55:31;100229.63;;;12.91;42.34
81686;BME280;71102;50.960;6.888;2024-03-25T11:57:57;100224.97;;;13.13;46.08
81686;BME280;71102;50.960;6.888;2024-03-25T12:00:24;100223.88;;;13.29;43.25
81686;BME280;71102;50.960;6.888;2024-03-25T12:02:49;100226.22;;;13.51;41.82
81686;BME280;71102;50.960;6.888;2024-03-25T12:05:18;100211.41;;;13.31;39.34
81686;BME280;71102;50.960;6.888;2024-03-25T12:07:44;100216.09;;;13.12;40.29
81686;BME280;71102;50.960;6.888;2024-03-25T12:10:09;100216.16;;;13.07;42.19
81686;BME280;71102;50.960;6.888;2024-03-25T12:12:35;100208.25;;;13.03;43.65
81686;BME280;71102;50.960;6.888;2024-03-25T12:15:00;100201.16;;;13.02;42.57
81686;BME280;71102;50.960;6.888;2024-03-25T12:17:27;100208.94;;;13.17;44.68
81686;BME280;71102;50.960;6.888;2024-03-25T12:20:06;100199.53;;;13.56;45.79
81686;BME280;71102;50.960;6.888;2024-03-25T12:22:32;100189.22;;;13.89;44.39
81686;BME280;71102;50.960;6.888;2024-03-25T12:24:58;100184.94;;;14.32;43.30
81686;BME280;71102;50.960;6.888;2024-03-25T12:27:24;100185.13;;;14.67;42.61
81686;BME280;71102;50.960;6.888;2024-03-25T12:32:40;100169.38;;;16.11;40.13
81686;BME280;71102;50.960;6.888;2024-03-25T12:37:32;100148.94;;;18.39;31.66
81686;BME280;71102;50.960;6.888;2024-03-25T12:39:57;100144.34;;;19.59;31.04
81686;BME280;71102;50.960;6.888;2024-03-25T12:42:23;100147.63;;;20.51;30.20
81686;BME280;71102;50.960;6.888;2024-03-25T12:44:49;100140.38;;;21.30;28.11
81686;BME280;71102;50.960;6.888;2024-03-25T12:47:14;100141.53;;;21.61;27.06
81686;BME280;71102;50.960;6.888;2024-03-25T12:49:39;100142.19;;;22.02;25.32
81686;BME280;71102;50.960;6.888;2024-03-25T12:52:05;100137.91;;;22.15;26.51
81686;BME280;71102;50.960;6.888;2024-03-25T12:54:31;100139.03;;;22.28;27.20
81686;BME280;71102;50.960;6.888;2024-03-25T12:56:56;100130.28;;;22.23;23.51